sensor_id;sensor_type;location;lat;lon;timestamp;pressure;altitude;pressure_sealevel;temperature;humidity
5679;BME280;2862;52.560;13.566;2022-11-20T00:03:07;100270.03;;;0.82;100.00
5679;BME280;2862;52.560;13.566;2022-11-20T00:13:11;100265.06;;;0.76;100.00
5679;BME280;2862;52.560;13.566;2022-11-20T00:23:14;100264.28;;;0.74;100.00
5679;BME280;2862;52.560;13.566;2022-11-20T00:33:18;100260.50;;;0.79;100.00
5679;BME280;2862;52.560;13.566;2022-11-20T00:43:21;100275.13;;;0.85;100.00
5679;BME280;2862;52.560;13.566;2022-11-20T00:53:26;100275.38;;;0.81;100.00
5679;BME280;2862;52.560;13.566;2022-11-20T01:03:30;100267.75;;;0.74;100.00
5679;BME280;2862;52.560;13.566;2022-11-20T01:13:35;100267.94;;;0.71;100.00
5679;BME280;2862;52.560;13.566;2022-11-20T01:23:43;100260.25;;;0.84;100.00
5679;BME280;2862;52.560;13.566;2022-11-20T01:33:49;100255.84;;;0.85;100.00
5679;BME280;2862;52.560;13.566;2022-11-20T01:43:52;100258.03;;;0.76;100.00
5679;BME280;2862;52.560;13.566;2022-11-20T01:53:59;100245.84;;;0.74;100.00
5679;BME280;2862;52.560;13.566;2022-11-20T02:04:03;100250.81;;;0.63;100.00
5679;BME280;2862;52.560;13.566;2022-11-20T02:14:08;100239.06;;;0.70;100.00
5679;BME280;2862;52.560;13.566;2022-11-20T02:24:14;100238.75;;;0.59;100.00
5679;BME280;2862;52.560;13.566;2022-11-20T02:34:18;100229.22;;;0.56;100.00
5679;BME280;2862;52.560;13.566;2022-11-20T02:44:22;100232.25;;;0.48;100.00
5679;BME280;2862;52.560;13.566;2022-11-20T02:54:25;100234.88;;;0.48;100.00
5679;BME280;2862;52.560;13.566;2022-11-20T03:04:30;100222.97;;;0.41;100.00
5679;BME280;2862;52.560;13.566;2022-11-20T03:14:34;100214.16;;;0.42;100.00
5679;BME280;2862;52.560;13.566;2022-11-20T03:24:38;100214.59;;;0.50;100.00
5679;BME280;2862;52.560;13.566;2022-11-20T03:34:41;100211.44;;;0.44;100.00
5679;BME280;2862;52.560;13.566;2022-11-20T03:44:45;100200.78;;;0.47;100.00
5679;BME280;2862;52.560;13.566;2022-11-20T03:54:48;100201.13;;;0.57;100.00
5679;BME280;2862;52.560;13.566;2022-11-20T04:04:53;100207.09;;;0.60;100.00
5679;BME280;2862;52.560;13.566;2022-11-20T04:14:56;100206.88;;;0.65;100.00
5679;BME280;2862;52.560;13.566;2022-11-20T04:25:00;100205.78;;;0.51;100.00
5679;BME280;2862;52.560;13.566;2022-11-20T04:35:03;100201.44;;;0.33;100.00
5679;BME280;2862;52.560;13.566;2022-11-20T04:45:13;100191.09;;;0.30;100.00
5679;BME280;2862;52.560;13.566;2022-11-20T04:55:16;100188.47;;;0.47;99.81
5679;BME280;2862;52.560;13.566;2022-11-20T05:05:21;100174.06;;;0.37;99.44
5679;BME280;2862;52.560;13.566;2022-11-20T05:15:26;100173.63;;;0.29;99.51
5679;BME280;2862;52.560;13.566;2022-11-20T05:25:40;100164.00;;;0.28;99.52
5679;BME280;2862;52.560;13.566;2022-11-20T05:35:43;100163.53;;;0.20;99.50
5679;BME280;2862;52.560;13.566;2022-11-20T05:45:52;100161.31;;;0.12;100.00
5679;BME280;2862;52.560;13.566;2022-11-20T05:55:57;100149.00;;;0.13;99.97
5679;BME280;2862;52.560;13.566;2022-11-20T06:06:03;100152.56;;;0.12;100.00
5679;BME280;2862;52.560;13.566;2022-11-20T06:16:06;100144.75;;;0.10;100.00
5679;BME280;2862;52.560;13.566;2022-11-20T06:26:12;100145.16;;;0.20;100.00
5679;BME280;2862;52.560;13.566;2022-11-20T06:36:16;100149.94;;;0.12;100.00
5679;BME280;2862;52.560;13.566;2022-11-20T06:46:21;100153.16;;;0.17;99.96
5679;BME280;2862;52.560;13.566;2022-11-20T06:56:24;100138.56;;;0.11;100.00
5679;BME280;2862;52.560;13.566;2022-11-20T07:06:28;100140.31;;;0.11;99.80
5679;BME280;2862;52.560;13.566;2022-11-20T07:16:31;100142.97;;;0.11;99.92
5679;BME280;2862;52.560;13.566;2022-11-20T07:26:36;100135.91;;;0.11;99.03
5679;BME280;2862;52.560;13.566;2022-11-20T07:36:39;100133.91;;;0.16;99.39
5679;BME280;2862;52.560;13.566;2022-11-20T07:46:43;100131.06;;;0.04;99.40
5679;BME280;2862;52.560;13.566;2022-11-20T07:56:46;100125.03;;;0.19;98.94
5679;BME280;2862;52.560;13.566;2022-11-20T08:06:51;100119.59;;;1.23;100.00
5679;BME280;2862;52.560;13.566;2022-11-20T08:16:54;100114.25;;;1.56;94.48
5679;BME280;2862;52.560;13.566;2022-11-20T08:26:59;100125.06;;;1.02;93.31
5679;BME280;2862;52.560;13.566;2022-11-20T08:37:02;100109.22;;;0.71;94.36
5679;BME280;2862;52.560;13.566;2022-11-20T08:47:07;100104.06;;;0.69;94.53
5679;BME280;2862;52.560;13.566;2022-11-20T08:57:09;100103.38;;;1.30;94.97
5679;BME280;2862;52.560;13.566;2022-11-20T09:07:13;100097.00;;;1.19;93.32
5679;BME280;2862;52.560;13.566;2022-11-20T09:17:17;100118.66;;;1.40;93.03
5679;BME280;2862;52.560;13.566;2022-11-20T09:27:23;100128.81;;;1.14;92.74
5679;BME280;2862;52.560;13.566;2022-11-20T09:37:26;100114.47;;;1.20;92.86
5679;BME280;2862;52.560;13.566;2022-11-20T09:47:40;100107.44;;;1.36;91.57
5679;BME280;2862;52.560;13.566;2022-11-20T09:57:47;100102.44;;;1.31;90.72
5679;BME280;2862;52.560;13.566;2022-11-20T10:07:54;100097.16;;;1.31;89.13
5679;BME280;2862;52.560;13.566;2022-11-20T10:18:10;100086.97;;;1.41;89.76
5679;BME280;2862;52.560;13.566;2022-11-20T10:28:27;100073.94;;;1.70;88.19
5679;BME280;2862;52.560;13.566;2022-11-20T10:38:36;100059.03;;;1.39;88.11
5679;BME280;2862;52.560;13.566;2022-11-20T10:48:47;100057.31;;;1.38;89.59
5679;BME280;2862;52.560;13.566;2022-11-20T10:59:02;100039.75;;;1.38;89.15
5679;BME280;2862;52.560;13.566;2022-11-20T11:09:12;100059.53;;;1.45;88.70
5679;BME280;2862;52.560;13.566;2022-11-20T11:19:17;100054.91;;;1.95;87.64
5679;BME280;2862;52.560;13.566;2022-11-20T11:29:21;100055.13;;;1.92;88.04
5679;BME280;2862;52.560;13.566;2022-11-20T11:39:27;100036.25;;;1.83;87.21
5679;BME280;2862;52.560;13.566;2022-11-20T11:49:32;100031.53;;;1.74;87.79
5679;BME280;2862;52.560;13.566;2022-11-20T11:59:46;100026.16;;;1.76;87.97
5679;BME280;2862;52.560;13.566;2022-11-20T12:09:57;100021.75;;;1.60;88.76
5679;BME280;2862;52.560;13.566;2022-11-20T12:20:01;100020.19;;;1.42;92.55
5679;BME280;2862;52.560;13.566;2022-11-20T12:30:08;100014.06;;;1.57;93.67
5679;BME280;2862;52.560;13.566;2022-11-20T12:40:24;100015.25;;;1.82;94.16
5679;BME280;2862;52.560;13.566;2022-11-20T12:50:41;99997.63;;;1.38;93.67
5679;BME280;2862;52.560;13.566;2022-11-20T13:01:11;99990.06;;;1.16;93.66
5679;BME280;2862;52.560;13.566;2022-11-20T13:11:43;99976.34;;;1.41;92.08
5679;BME280;2862;52.560;13.566;2022-11-20T13:21:49;99967.00;;;1.66;90.21
5679;BME280;2862;52.560;13.566;2022-11-20T13:32:02;99957.06;;;1.71;89.85
5679;BME280;2862;52.560;13.566;2022-11-20T13:42:23;99948.47;;;1.97;91.91
5679;BME280;2862;52.560;13.566;2022-11-20T13:52:39;99943.47;;;2.07;87.73
5679;BME280;2862;52.560;13.566;2022-11-20T14:02:58;99956.69;;;1.77;89.11
5679;BME280;2862;52.560;13.566;2022-11-20T14:13:12;99967.38;;;1.59;89.44
5679;BME280;2862;52.560;13.566;2022-11-20T14:23:24;99972.97;;;1.39;93.71
5679;BME280;2862;52.560;13.566;2022-11-20T14:33:32;99970.91;;;1.44;91.32
5679;BME280;2862;52.560;13.566;2022-11-20T14:43:36;99979.44;;;1.18;91.43
5679;BME280;2862;52.560;13.566;2022-11-20T14:53:41;99965.59;;;1.30;92.54
5679;BME280;2862;52.560;13.566;2022-11-20T15:03:44;99954.56;;;1.23;90.53
5679;BME280;2862;52.560;13.566;2022-11-20T15:14:03;99959.22;;;1.18;90.10
5679;BME280;2862;52.560;13.566;2022-11-20T15:24:08;99956.59;;;1.18;90.40
5679;BME280;2862;52.560;13.566;2022-11-20T15:34:16;99947.09;;;1.16;90.37
5679;BME280;2862;52.560;13.566;2022-11-20T15:44:19;99940.91;;;1.17;90.63
5679;BME280;2862;52.560;13.566;2022-11-20T15:54:24;99942.94;;;1.12;90.70
5679;BME280;2862;52.560;13.566;2022-11-20T16:04:34;99940.06;;;1.16;89.95
5679;BME280;2862;52.560;13.566;2022-11-20T16:14:43;99915.28;;;1.04;90.82
5679;BME280;2862;52.560;13.566;2022-11-20T16:25:04;99915.88;;;0.78;91.58
5679;BME280;2862;52.560;13.566;2022-11-20T16:35:09;99926.84;;;0.55;92.20
5679;BME280;2862;52.560;13.566;2022-11-20T16:45:12;99932.78;;;0.58;92.06
5679;BME280;2862;52.560;13.566;2022-11-20T16:55:22;99927.84;;;0.36;93.10
5679;BME280;2862;52.560;13.566;2022-11-20T17:05:28;99930.19;;;0.25;93.32
5679;BME280;2862;52.560;13.566;2022-11-20T17:15:32;99940.38;;;0.31;93.14
5679;BME280;2862;52.560;13.566;2022-11-20T17:25:35;99933.69;;;0.57;91.86
5679;BME280;2862;52.560;13.566;2022-11-20T17:35:40;99923.44;;;0.68;91.56
5679;BME280;2862;52.560;13.566;2022-11-20T17:45:44;99928.34;;;0.74;91.22
5679;BME280;2862;52.560;13.566;2022-11-20T17:55:55;99924.03;;;0.73;91.00
5679;BME280;2862;52.560;13.566;2022-11-20T18:06:17;99922.84;;;0.79;90.71
5679;BME280;2862;52.560;13.566;2022-11-20T18:16:22;99902.56;;;0.81;91.07
5679;BME280;2862;52.560;13.566;2022-11-20T18:26:25;99893.47;;;0.87;90.83
5679;BME280;2862;52.560;13.566;2022-11-20T18:36:30;99889.22;;;0.84;90.91
5679;BME280;2862;52.560;13.566;2022-11-20T18:46:33;99887.97;;;0.75;91.79
5679;BME280;2862;52.560;13.566;2022-11-20T18:56:37;99885.16;;;0.63;92.58
5679;BME280;2862;52.560;13.566;2022-11-20T19:06:42;99889.66;;;0.61;92.48
5679;BME280;2862;52.560;13.566;2022-11-20T19:16:46;99888.72;;;0.46;92.94
5679;BME280;2862;52.560;13.566;2022-11-20T19:26:49;99890.00;;;0.39;93.21
5679;BME280;2862;52.560;13.566;2022-11-20T19:36:53;99886.09;;;0.30;93.08
5679;BME280;2862;52.560;13.566;2022-11-20T19:46:56;99886.44;;;0.24;93.55
5679;BME280;2862;52.560;13.566;2022-11-20T19:57:01;99882.69;;;0.28;93.42
5679;BME280;2862;52.560;13.566;2022-11-20T20:07:04;99885.59;;;0.55;95.12
5679;BME280;2862;52.560;13.566;2022-11-20T20:17:08;99869.22;;;0.50;92.75
5679;BME280;2862;52.560;13.566;2022-11-20T20:27:11;99855.72;;;0.56;92.35
5679;BME280;2862;52.560;13.566;2022-11-20T20:37:15;99849.63;;;0.56;92.44
5679;BME280;2862;52.560;13.566;2022-11-20T20:47:18;99840.88;;;0.39;93.18
5679;BME280;2862;52.560;13.566;2022-11-20T20:57:23;99840.22;;;0.20;94.28
5679;BME280;2862;52.560;13.566;2022-11-20T21:07:28;99833.88;;;0.24;93.94
5679;BME280;2862;52.560;13.566;2022-11-20T21:17:32;99823.16;;;0.27;93.57
5679;BME280;2862;52.560;13.566;2022-11-20T21:27:35;99803.00;;;0.12;93.63
5679;BME280;2862;52.560;13.566;2022-11-20T21:37:39;99798.03;;;-0.26;94.75
5679;BME280;2862;52.560;13.566;2022-11-20T21:47:42;99784.78;;;-0.40;95.09
5679;BME280;2862;52.560;13.566;2022-11-20T21:57:46;99779.84;;;-0.46;95.62
5679;BME280;2862;52.560;13.566;2022-11-20T22:07:49;99763.81;;;-0.58;95.56
5679;BME280;2862;52.560;13.566;2022-11-20T22:17:53;99771.28;;;-0.83;96.83
5679;BME280;2862;52.560;13.566;2022-11-20T22:28:14;99760.75;;;-0.66;95.78
5679;BME280;2862;52.560;13.566;2022-11-20T22:38:18;99752.00;;;-0.82;95.55
5679;BME280;2862;52.560;13.566;2022-11-20T22:48:21;99747.50;;;-1.13;95.87
5679;BME280;2862;52.560;13.566;2022-11-20T22:58:26;99732.53;;;-1.46;97.03
5679;BME280;2862;52.560;13.566;2022-11-20T23:08:29;99721.81;;;-1.24;96.44
5679;BME280;2862;52.560;13.566;2022-11-20T23:18:34;99714.31;;;-1.14;95.28
5679;BME280;2862;52.560;13.566;2022-11-20T23:28:37;99708.41;;;-1.35;95.03
5679;BME280;2862;52.560;13.566;2022-11-20T23:38:42;99716.53;;;-1.07;94.52
5679;BME280;2862;52.560;13.566;2022-11-20T23:48:45;99698.00;;;-1.03;93.22
5679;BME280;2862;52.560;13.566;2022-11-20T23:58:49;99686.06;;;-0.92;92.07
